createdAt,value
2022-08-05T00:02:11.586Z,16.76
2022-08-05T00:04:40.307Z,16.72
2022-08-05T00:07:59.034Z,16.67
2022-08-05T00:10:00.009Z,16.67
2022-08-05T00:12:27.690Z,16.69
2022-08-05T00:14:55.325Z,16.69
2022-08-05T00:17:23.010Z,16.64
2022-08-05T00:20:02.544Z,16.64
2022-08-05T00:22:32.124Z,16.61
2022-08-05T00:24:59.733Z,16.63
2022-08-05T00:27:36.179Z,16.63
2022-08-05T00:30:05.105Z,16.64
2022-08-05T00:32:39.157Z,16.59
2022-08-05T00:35:09.241Z,16.63
2022-08-05T00:37:53.103Z,16.61
2022-08-05T00:40:28.425Z,16.61
2022-08-05T00:42:57.934Z,16.69
2022-08-05T00:45:38.267Z,16.62
2022-08-05T00:48:08.017Z,16.59
2022-08-05T00:50:36.332Z,16.62
2022-08-05T00:53:09.892Z,16.63
2022-08-05T00:55:53.376Z,16.68
2022-08-05T00:58:20.961Z,16.76
2022-08-05T01:00:54.981Z,16.81
2022-08-05T01:03:23.508Z,16.84
2022-08-05T01:05:51.425Z,16.79
2022-08-05T01:08:41.548Z,16.66
2022-08-05T01:11:13.691Z,16.59
2022-08-05T01:13:57.678Z,16.54
2022-08-05T01:16:31.834Z,16.50
2022-08-05T01:19:20.229Z,16.46
2022-08-05T01:22:06.406Z,16.43
2022-08-05T01:25:01.146Z,16.54
2022-08-05T01:27:55.808Z,16.54
2022-08-05T01:30:33.759Z,16.45
2022-08-05T01:33:08.097Z,16.47
2022-08-05T01:35:51.657Z,16.49
2022-08-05T01:38:27.292Z,16.48
2022-08-05T01:41:01.283Z,16.46
2022-08-05T01:43:32.759Z,16.35
2022-08-05T01:46:07.317Z,16.37
2022-08-05T01:48:46.150Z,16.33
2022-08-05T01:51:18.969Z,16.37
2022-08-05T01:53:57.449Z,16.45
2022-08-05T01:58:29.946Z,16.42
2022-08-05T01:59:23.987Z,16.37
2022-08-05T02:01:57.755Z,16.38
2022-08-05T02:04:29.089Z,16.32
2022-08-05T02:06:59.291Z,16.33
2022-08-05T02:09:28.054Z,16.25
2022-08-05T02:12:03.980Z,16.21
2022-08-05T02:14:38.353Z,16.18
2022-08-05T02:17:16.749Z,16.15
2022-08-05T02:20:03.001Z,16.08
2022-08-05T02:22:34.114Z,16.03
2022-08-05T02:25:06.530Z,15.96
2022-08-05T02:27:57.991Z,15.94
2022-08-05T02:30:34.517Z,15.92
2022-08-05T02:33:03.691Z,15.97
2022-08-05T02:35:37.857Z,16.01
2022-08-05T02:38:19.344Z,16.07
2022-08-05T02:40:48.073Z,16.09
2022-08-05T02:43:17.808Z,16.12
2022-08-05T02:45:52.061Z,16.12
2022-08-05T02:48:29.112Z,16.08
2022-08-05T02:50:59.638Z,16.06
2022-08-05T02:53:27.799Z,16.07
2022-08-05T02:56:00.313Z,15.95
2022-08-05T02:58:30.568Z,15.97
2022-08-05T03:01:02.394Z,15.93
2022-08-05T03:03:33.744Z,15.93
2022-08-05T03:06:55.892Z,15.86
2022-08-05T03:08:52.136Z,15.87
2022-08-05T03:11:55.096Z,15.82
2022-08-05T03:14:09.072Z,15.86
2022-08-05T03:16:42.205Z,15.88
2022-08-05T03:19:12.769Z,15.96
2022-08-05T03:21:48.619Z,16.02
2022-08-05T03:24:18.264Z,15.97
2022-08-05T03:26:57.493Z,16.06
2022-08-05T03:29:45.520Z,16.13
2022-08-05T03:32:16.184Z,16.14
2022-08-05T03:34:50.820Z,16.20
2022-08-05T03:37:20.378Z,16.22
2022-08-05T03:39:59.433Z,16.15
2022-08-05T03:42:32.421Z,16.13
2022-08-05T03:45:22.124Z,16.10
2022-08-05T03:47:52.044Z,16.07
2022-08-05T03:50:25.781Z,16.08
2022-08-05T03:55:53.870Z,16.09
2022-08-05T03:56:11.437Z,16.05
2022-08-05T03:58:43.584Z,16.05
2022-08-05T04:01:14.165Z,16.04
2022-08-05T04:04:09.501Z,16.13
2022-08-05T04:06:35.785Z,16.20
2022-08-05T04:09:06.326Z,16.26
2022-08-05T04:11:47.310Z,16.25
2022-08-05T04:14:30.008Z,16.27
2022-08-05T04:16:59.717Z,16.31
2022-08-05T04:19:29.372Z,16.35
2022-08-05T04:22:08.640Z,16.37
2022-08-05T04:24:43.807Z,16.46
2022-08-05T04:27:13.189Z,16.45
2022-08-05T04:29:41.380Z,16.48
2022-08-05T04:32:09.767Z,16.50
2022-08-05T04:34:43.131Z,16.49
2022-08-05T04:37:11.708Z,16.45
2022-08-05T04:39:40.623Z,16.37
2022-08-05T04:42:09.198Z,16.42
2022-08-05T04:44:36.888Z,16.40
2022-08-05T04:47:08.753Z,16.39
2022-08-05T04:50:02.886Z,16.44
2022-08-05T04:52:36.853Z,16.38
2022-08-05T04:55:14.548Z,16.35
2022-08-05T04:57:48.039Z,16.31
2022-08-05T05:00:23.296Z,16.25
2022-08-05T05:02:51.565Z,16.26
2022-08-05T05:05:28.394Z,16.25
2022-08-05T05:08:01.848Z,16.35
2022-08-05T05:10:30.176Z,16.39
2022-08-05T05:12:57.837Z,16.40
2022-08-05T05:15:56.495Z,16.46
2022-08-05T05:18:14.928Z,16.51
2022-08-05T05:20:57.590Z,16.57
2022-08-05T05:23:26.269Z,16.70
2022-08-05T05:25:53.826Z,16.78
2022-08-05T05:28:21.453Z,16.77
2022-08-05T05:30:49.858Z,16.73
2022-08-05T05:33:17.863Z,16.88
2022-08-05T05:35:51.138Z,17.05
2022-08-05T05:38:22.431Z,17.01
2022-08-05T05:40:55.651Z,17.07
2022-08-05T05:43:57.319Z,17.01
2022-08-05T05:46:17.845Z,16.95
2022-08-05T05:48:47.828Z,16.87
2022-08-05T05:51:20.669Z,16.93
2022-08-05T05:53:58.196Z,16.90
2022-08-05T05:56:32.470Z,16.91
2022-08-05T05:59:03.199Z,16.86
2022-08-05T06:01:36.963Z,16.94
2022-08-05T06:04:07.460Z,17.08
2022-08-05T06:06:35.451Z,17.19
2022-08-05T06:09:05.088Z,17.50
2022-08-05T06:11:32.900Z,17.93
2022-08-05T06:14:00.763Z,18.25
2022-08-05T06:16:32.731Z,18.42
2022-08-05T06:19:01.078Z,18.63
2022-08-05T06:21:36.645Z,18.72
2022-08-05T06:24:11.911Z,18.80
2022-08-05T06:26:51.759Z,18.95
2022-08-05T06:29:25.286Z,18.97
2022-08-05T06:32:21.183Z,19.07
2022-08-05T06:34:56.080Z,19.17
2022-08-05T06:37:56.446Z,19.09
2022-08-05T06:40:18.460Z,19.11
2022-08-05T06:42:51.690Z,18.87
2022-08-05T06:45:20.658Z,18.73
2022-08-05T06:48:36.146Z,18.46
2022-08-05T06:50:36.790Z,18.15
2022-08-05T06:53:11.437Z,18.00
2022-08-05T06:55:51.322Z,17.90
2022-08-05T06:58:29.775Z,17.85
2022-08-05T07:01:02.790Z,17.81
2022-08-05T07:03:32.552Z,17.74
2022-08-05T07:06:05.416Z,17.78
2022-08-05T07:08:41.972Z,17.73
2022-08-05T07:11:15.383Z,17.71
2022-08-05T07:14:01.162Z,17.73
2022-08-05T07:18:01.615Z,17.73
2022-08-05T07:22:29.031Z,18.10
2022-08-05T07:24:58.764Z,18.14
2022-08-05T07:27:56.574Z,18.22
2022-08-05T07:30:22.933Z,18.23
2022-08-05T07:32:55.923Z,18.18
2022-08-05T07:36:03.088Z,18.23
2022-08-05T07:38:26.377Z,18.28
2022-08-05T07:41:16.694Z,18.17
2022-08-05T07:43:50.878Z,18.25
2022-08-05T07:46:25.093Z,18.21
2022-08-05T07:49:02.247Z,18.20
2022-08-05T07:51:36.739Z,18.10
2022-08-05T07:54:06.185Z,18.06
2022-08-05T07:57:00.887Z,18.13
2022-08-05T07:59:38.133Z,18.28
2022-08-05T08:02:15.204Z,18.29
2022-08-05T08:04:45.617Z,18.38
2022-08-05T08:07:13.583Z,18.34
2022-08-05T08:09:41.213Z,18.34
2022-08-05T08:12:29.656Z,18.54
2022-08-05T08:15:02.168Z,18.67
2022-08-05T08:17:30.721Z,18.76
2022-08-05T08:20:21.107Z,18.78
2022-08-05T08:22:51.824Z,18.89
2022-08-05T08:25:26.762Z,19.00
2022-08-05T08:28:18.346Z,19.05
2022-08-05T08:30:49.710Z,18.87
2022-08-05T08:33:19.164Z,19.04
2022-08-05T08:35:53.167Z,19.05
2022-08-05T08:38:35.380Z,19.24
2022-08-05T08:41:07.060Z,19.39
2022-08-05T08:45:23.068Z,19.45
2022-08-05T08:46:28.344Z,19.72
2022-08-05T08:49:04.938Z,19.94
2022-08-05T08:52:02.821Z,19.99
2022-08-05T08:54:27.619Z,19.72
2022-08-05T08:56:56.632Z,19.96
2022-08-05T08:59:27.664Z,20.00
2022-08-05T09:02:06.080Z,20.05
2022-08-05T09:04:58.154Z,20.06
2022-08-05T09:07:28.633Z,20.12
2022-08-05T09:09:57.339Z,20.27
2022-08-05T09:12:30.150Z,20.48
2022-08-05T09:15:06.243Z,20.54
2022-08-05T09:17:42.481Z,20.48
2022-08-05T09:20:36.404Z,20.87
2022-08-05T09:23:19.881Z,21.01
2022-08-05T09:26:01.098Z,20.96
2022-08-05T09:28:33.841Z,20.64
2022-08-05T09:31:22.068Z,20.45
2022-08-05T09:33:55.350Z,20.77
2022-08-05T09:36:27.706Z,20.87
2022-08-05T09:39:02.573Z,21.03
2022-08-05T09:41:32.923Z,21.23
2022-08-05T09:44:06.087Z,21.26
2022-08-05T09:46:35.514Z,21.18
2022-08-05T09:49:19.533Z,21.08
2022-08-05T09:51:49.437Z,21.34
2022-08-05T09:54:28.837Z,21.14
2022-08-05T09:57:01.603Z,20.99
2022-08-05T09:59:34.883Z,20.94
2022-08-05T10:02:04.832Z,20.98
2022-08-05T10:04:40.830Z,21.28
2022-08-05T10:07:20.134Z,21.42
2022-08-05T10:10:04.156Z,21.71
2022-08-05T10:12:49.203Z,21.83
2022-08-05T10:15:23.181Z,21.88
2022-08-05T10:18:14.267Z,21.97
2022-08-05T10:20:48.787Z,22.06
2022-08-05T10:23:34.413Z,22.09
2022-08-05T10:26:14.270Z,22.20
2022-08-05T10:28:42.360Z,22.01
2022-08-05T10:32:50.933Z,22.06
2022-08-05T10:33:57.727Z,22.13
2022-08-05T10:36:27.201Z,22.28
2022-08-05T10:39:01.623Z,22.23
2022-08-05T10:41:46.994Z,22.11
2022-08-05T10:44:19.209Z,21.85
2022-08-05T10:46:50.598Z,21.62
2022-08-05T10:49:18.689Z,21.27
2022-08-05T10:52:00.374Z,21.09
2022-08-05T10:55:02.750Z,20.87
2022-08-05T10:57:32.063Z,20.81
2022-08-05T11:00:19.806Z,20.91
2022-08-05T11:03:25.226Z,21.04
2022-08-05T11:06:06.037Z,21.19
2022-08-05T11:08:39.184Z,20.76
2022-08-05T11:11:44.743Z,20.59
2022-08-05T11:14:56.261Z,20.57
2022-08-05T11:17:57.209Z,20.80
2022-08-05T11:20:44.117Z,20.99
2022-08-05T11:24:04.590Z,21.16
2022-08-05T11:26:28.049Z,21.34
2022-08-05T11:29:06.690Z,21.74
2022-08-05T11:31:56.485Z,22.07
2022-08-05T11:34:37.974Z,22.10
2022-08-05T11:38:26.247Z,22.51
2022-08-05T11:40:00.788Z,22.75
2022-08-05T11:42:37.920Z,23.07
2022-08-05T11:45:14.478Z,22.89
2022-08-05T11:47:55.063Z,22.45
2022-08-05T11:50:22.902Z,22.49
2022-08-05T11:52:54.388Z,22.39
2022-08-05T11:55:32.181Z,22.72
2022-08-05T11:58:09.742Z,23.12
2022-08-05T12:00:44.155Z,23.44
2022-08-05T12:03:28.448Z,23.18
2022-08-05T12:06:05.970Z,22.98
2022-08-05T12:08:50.077Z,23.01
2022-08-05T12:11:20.815Z,23.23
2022-08-05T12:13:58.711Z,23.14
2022-08-05T12:16:29.762Z,23.15
2022-08-05T12:18:57.355Z,23.31
2022-08-05T12:21:30.266Z,23.54
2022-08-05T12:24:04.902Z,23.77
2022-08-05T12:26:33.714Z,23.94
2022-08-05T12:29:03.460Z,24.16
2022-08-05T12:31:41.535Z,24.81
2022-08-05T12:34:20.519Z,25.55
2022-08-05T12:36:50.636Z,26.12
2022-08-05T12:39:19.096Z,26.02
2022-08-05T12:41:47.122Z,26.03
2022-08-05T12:44:33.012Z,25.72
2022-08-05T12:47:02.824Z,26.22
2022-08-05T12:50:02.329Z,26.36
2022-08-05T12:52:35.273Z,26.40
2022-08-05T12:55:22.648Z,25.69
2022-08-05T12:58:50.692Z,25.57
2022-08-05T13:02:03.681Z,25.62
2022-08-05T13:03:33.249Z,25.69
2022-08-05T13:06:02.337Z,26.17
2022-08-05T13:08:32.255Z,26.32
2022-08-05T13:11:01.306Z,26.26
2022-08-05T13:14:05.024Z,26.22
2022-08-05T13:16:19.453Z,26.13
2022-08-05T13:18:52.757Z,25.88
2022-08-05T13:21:23.172Z,25.76
2022-08-05T13:23:56.243Z,25.76
2022-08-05T13:26:30.087Z,25.79
2022-08-05T13:28:59.115Z,25.56
2022-08-05T13:31:33.731Z,24.99
2022-08-05T13:34:22.453Z,24.91
2022-08-05T13:36:53.020Z,24.72
2022-08-05T13:39:24.418Z,24.75
2022-08-05T13:42:14.247Z,24.52
2022-08-05T13:44:45.303Z,24.37
2022-08-05T13:47:34.843Z,24.20
2022-08-05T13:50:04.362Z,24.05
2022-08-05T13:52:35.203Z,23.80
2022-08-05T13:55:07.980Z,23.56
2022-08-05T13:57:51.418Z,23.50
2022-08-05T14:00:26.993Z,23.42
2022-08-05T14:02:57.375Z,23.27
2022-08-05T14:05:48.200Z,23.25
2022-08-05T14:08:20.066Z,23.15
2022-08-05T14:10:49.829Z,23.15
2022-08-05T14:13:17.473Z,23.06
2022-08-05T14:16:04.602Z,22.97
2022-08-05T14:18:34.538Z,22.58
2022-08-05T14:22:07.883Z,22.65
2022-08-05T14:23:53.311Z,22.46
2022-08-05T14:26:37.066Z,22.29
2022-08-05T14:29:16.220Z,22.18
2022-08-05T14:32:02.702Z,21.88
2022-08-05T14:34:35.412Z,21.54
2022-08-05T14:37:03.538Z,21.26
2022-08-05T14:39:31.897Z,21.34
2022-08-05T14:42:29.254Z,21.34
2022-08-05T14:44:57.136Z,21.27
2022-08-05T14:48:02.840Z,21.18
2022-08-05T14:50:19.100Z,21.16
2022-08-05T14:52:53.633Z,21.03
2022-08-05T14:55:25.588Z,21.01
2022-08-05T14:57:54.315Z,20.87
2022-08-05T15:00:28.248Z,20.87
2022-08-05T15:02:58.159Z,20.78
2022-08-05T15:05:30.214Z,20.74
2022-08-05T15:08:58.036Z,20.60
2022-08-05T15:11:03.539Z,20.39
2022-08-05T15:13:46.187Z,20.28
2022-08-05T15:16:17.853Z,20.23
2022-08-05T15:18:47.230Z,20.28
2022-08-05T15:21:16.315Z,20.30
2022-08-05T15:23:49.133Z,20.20
2022-08-05T15:26:17.433Z,20.13
2022-08-05T15:29:00.233Z,20.01
2022-08-05T15:31:34.793Z,19.96
2022-08-05T15:34:19.353Z,19.84
2022-08-05T15:36:51.634Z,19.68
2022-08-05T15:41:03.268Z,19.58
2022-08-05T15:42:53.726Z,19.52
2022-08-05T15:44:54.993Z,19.50
2022-08-05T15:47:22.879Z,19.48
2022-08-05T15:49:58.688Z,19.37
2022-08-05T15:52:51.549Z,19.34
2022-08-05T15:55:16.556Z,19.27
2022-08-05T15:57:45.043Z,19.28
2022-08-05T16:00:16.815Z,19.17
2022-08-05T16:02:53.504Z,18.48
2022-08-05T16:05:22.770Z,18.15
2022-08-05T16:07:57.429Z,18.00
2022-08-05T16:10:25.452Z,17.55
2022-08-05T16:12:55.848Z,17.39
2022-08-05T16:15:24.037Z,17.34
2022-08-05T16:18:00.488Z,17.17
2022-08-05T16:20:31.746Z,16.93
2022-08-05T16:23:01.397Z,16.75
2022-08-05T16:25:33.861Z,16.50
2022-08-05T16:28:05.521Z,16.39
2022-08-05T16:30:36.026Z,16.30
2022-08-05T16:33:04.063Z,16.41
2022-08-05T16:35:33.783Z,16.45
2022-08-05T16:38:24.298Z,16.53
2022-08-05T16:40:55.632Z,16.56
2022-08-05T16:43:30.110Z,16.58
2022-08-05T16:46:03.965Z,16.64
2022-08-05T16:48:37.440Z,16.53
2022-08-05T16:51:09.023Z,16.42
2022-08-05T16:54:04.214Z,16.28
2022-08-05T16:56:29.111Z,16.12
2022-08-05T16:58:57.445Z,16.17
2022-08-05T17:01:25.216Z,16.15
2022-08-05T17:03:52.869Z,16.17
2022-08-05T17:06:24.780Z,16.15
2022-08-05T17:08:54.656Z,15.98
2022-08-05T17:11:23.914Z,16.07
2022-08-05T17:14:00.162Z,15.89
2022-08-05T17:16:36.146Z,15.89
2022-08-05T17:19:07.278Z,15.82
2022-08-05T17:21:36.891Z,15.68
2022-08-05T17:24:28.282Z,15.59
2022-08-05T17:26:56.893Z,15.63
2022-08-05T17:29:34.005Z,15.59
2022-08-05T17:32:11.751Z,15.64
2022-08-05T17:34:47.900Z,15.57
2022-08-05T17:37:40.721Z,15.50
2022-08-05T17:40:10.308Z,15.52
2022-08-05T17:42:41.818Z,15.60
2022-08-05T17:45:20.758Z,15.60
2022-08-05T17:47:53.924Z,15.72
2022-08-05T17:50:28.235Z,15.55
2022-08-05T17:52:56.754Z,15.65
2022-08-05T17:55:27.574Z,15.66
2022-08-05T17:58:02.462Z,15.67
2022-08-05T18:00:30.800Z,15.66
2022-08-05T18:02:58.779Z,15.69
2022-08-05T18:05:28.119Z,15.70
2022-08-05T18:07:56.717Z,15.77
2022-08-05T18:10:26.251Z,15.79
2022-08-05T18:12:53.878Z,15.72
2022-08-05T18:15:22.245Z,15.70
2022-08-05T18:17:58.634Z,15.78
2022-08-05T18:20:31.878Z,15.75
2022-08-05T18:23:09.509Z,15.69
2022-08-05T18:25:45.155Z,15.64
2022-08-05T18:28:16.223Z,15.62
2022-08-05T18:30:44.642Z,15.51
2022-08-05T18:33:13.641Z,15.53
2022-08-05T18:36:01.398Z,15.52
2022-08-05T18:38:30.599Z,15.46
2022-08-05T18:41:55.214Z,15.38
2022-08-05T18:43:48.651Z,15.41
2022-08-05T18:46:19.940Z,15.48
2022-08-05T18:48:48.381Z,15.49
2022-08-05T18:52:04.098Z,15.46
2022-08-05T18:54:25.085Z,15.59
2022-08-05T18:56:54.062Z,15.62
2022-08-05T18:59:42.751Z,15.62
2022-08-05T19:02:26.287Z,15.55
2022-08-05T19:05:02.500Z,15.49
2022-08-05T19:07:46.222Z,15.44
2022-08-05T19:10:14.744Z,15.39
2022-08-05T19:12:43.762Z,15.34
2022-08-05T19:15:56.948Z,15.31
2022-08-05T19:18:09.239Z,15.23
2022-08-05T19:20:41.493Z,15.18
2022-08-05T19:24:03.843Z,15.11
2022-08-05T19:26:01.958Z,15.03
2022-08-05T19:28:32.785Z,15.00
2022-08-05T19:31:04.868Z,14.94
2022-08-05T19:33:36.196Z,14.90
2022-08-05T19:36:06.490Z,14.87
2022-08-05T19:38:35.847Z,14.84
2022-08-05T19:41:07.429Z,14.83
2022-08-05T19:44:06.429Z,14.78
2022-08-05T19:46:29.513Z,14.72
2022-08-05T19:49:00.889Z,14.66
2022-08-05T19:52:04.498Z,14.62
2022-08-05T19:54:25.607Z,14.61
2022-08-05T19:56:58.820Z,14.58
2022-08-05T19:59:55.339Z,14.54
2022-08-05T20:02:17.536Z,14.51
2022-08-05T20:04:46.134Z,14.48
2022-08-05T20:07:47.386Z,14.45
2022-08-05T20:10:08.266Z,14.43
2022-08-05T20:12:46.172Z,14.40
2022-08-05T20:15:48.707Z,14.38
2022-08-05T20:18:10.089Z,14.34
2022-08-05T20:20:55.909Z,14.31
2022-08-05T20:23:40.239Z,14.27
2022-08-05T20:26:16.001Z,14.24
2022-08-05T20:28:44.453Z,14.21
2022-08-05T20:31:13.742Z,14.17
2022-08-05T20:33:44.528Z,14.15
2022-08-05T20:36:14.361Z,14.12
2022-08-05T20:38:54.590Z,14.09
2022-08-05T20:41:43.335Z,14.05
2022-08-05T20:44:17.050Z,14.03
2022-08-05T20:46:48.993Z,14.01
2022-08-05T20:49:18.436Z,13.97
2022-08-05T20:51:53.835Z,13.97
2022-08-05T20:54:21.663Z,13.96
2022-08-05T20:56:49.314Z,13.94
2022-08-05T20:59:19.372Z,13.90
2022-08-05T21:01:57.925Z,13.87
2022-08-05T21:04:27.118Z,13.81
2022-08-05T21:06:55.038Z,13.77
2022-08-05T21:09:23.578Z,13.72
2022-08-05T21:12:09.991Z,13.67
2022-08-05T21:14:39.572Z,13.62
2022-08-05T21:17:08.505Z,13.58
2022-08-05T21:19:47.232Z,13.54
2022-08-05T21:22:21.845Z,13.52
2022-08-05T21:24:52.424Z,13.47
2022-08-05T21:27:25.455Z,13.43
2022-08-05T21:29:55.475Z,13.40
2022-08-05T21:32:26.941Z,13.36
2022-08-05T21:35:06.950Z,13.33
2022-08-05T21:37:47.200Z,13.29
2022-08-05T21:40:16.581Z,13.27
2022-08-05T21:42:45.666Z,13.24
2022-08-05T21:45:26.403Z,13.21
2022-08-05T21:48:06.548Z,13.19
2022-08-05T21:50:36.801Z,13.17
2022-08-05T21:53:16.324Z,13.14
2022-08-05T21:56:04.234Z,13.11
2022-08-05T21:58:32.932Z,13.10
2022-08-05T22:01:01.352Z,13.08
2022-08-05T22:03:52.088Z,13.05
2022-08-05T22:06:23.085Z,13.02
2022-08-05T22:09:15.145Z,13.00
2022-08-05T22:11:43.433Z,12.97
2022-08-05T22:14:33.526Z,12.94
2022-08-05T22:17:05.405Z,12.91
2022-08-05T22:20:03.414Z,12.89
2022-08-05T22:22:27.921Z,12.87
2022-08-05T22:25:18.147Z,12.83
2022-08-05T22:28:09.619Z,12.80
2022-08-05T22:30:55.401Z,12.82
2022-08-05T22:33:57.049Z,12.86
2022-08-05T22:36:15.503Z,12.94
2022-08-05T22:38:47.909Z,12.94
2022-08-05T22:42:04.480Z,12.95
2022-08-05T22:44:04.738Z,12.92
2022-08-05T22:46:32.878Z,12.90
2022-08-05T22:49:00.457Z,12.86
2022-08-05T22:52:02.718Z,12.82
2022-08-05T22:54:16.985Z,12.78
2022-08-05T22:56:44.630Z,12.73
2022-08-05T22:59:48.265Z,12.72
2022-08-05T23:02:07.541Z,12.67
2022-08-05T23:04:36.374Z,12.64
2022-08-05T23:07:07.171Z,12.64
2022-08-05T23:09:57.702Z,12.64
2022-08-05T23:12:24.461Z,12.62
2022-08-05T23:14:52.403Z,12.61
2022-08-05T23:17:34.953Z,12.61
2022-08-05T23:20:15.514Z,12.59
2022-08-05T23:22:48.536Z,12.59
2022-08-05T23:25:17.685Z,12.58
2022-08-05T23:28:06.843Z,12.57
2022-08-05T23:30:40.671Z,12.59
2022-08-05T23:33:15.940Z,12.58
2022-08-05T23:35:49.418Z,12.55
2022-08-05T23:38:19.028Z,12.53
2022-08-05T23:40:49.950Z,12.51
2022-08-05T23:43:25.843Z,12.47
2022-08-05T23:46:19.814Z,12.45
2022-08-05T23:48:59.876Z,12.41
2022-08-05T23:51:54.218Z,12.39
2022-08-05T23:54:29.875Z,12.33
2022-08-05T23:57:04.042Z,12.31
